createdAt,value
2018-11-26T00:00:24.097Z,12.03
2018-11-26T00:02:53.077Z,15.17
2018-11-26T00:05:22.336Z,9.40
2018-11-26T00:07:51.323Z,12.57
2018-11-26T00:10:31.563Z,11.57
2018-11-26T00:13:00.624Z,12.47
2018-11-26T00:15:29.684Z,11.87
2018-11-26T00:17:58.741Z,9.53
2018-11-26T00:20:27.741Z,9.00
2018-11-26T00:22:56.756Z,11.17
2018-11-26T00:25:25.815Z,10.70
2018-11-26T00:27:54.896Z,13.03
2018-11-26T00:30:23.898Z,12.00
2018-11-26T00:32:52.879Z,14.67
2018-11-26T00:35:21.879Z,13.50
2018-11-26T00:37:50.893Z,11.30
2018-11-26T00:40:19.882Z,11.37
2018-11-26T00:42:48.947Z,10.33
2018-11-26T00:45:18.055Z,8.27
2018-11-26T00:47:47.084Z,12.40
2018-11-26T00:50:16.085Z,10.40
2018-11-26T00:52:45.062Z,11.53
2018-11-26T00:55:14.088Z,13.60
2018-11-26T00:57:43.169Z,13.33
2018-11-26T01:00:12.897Z,14.47
2018-11-26T01:02:42.006Z,17.43
2018-11-26T01:05:22.507Z,13.30
2018-11-26T01:07:51.465Z,9.80
2018-11-26T01:10:20.599Z,12.07
2018-11-26T01:12:49.561Z,14.20
2018-11-26T01:15:18.629Z,11.77
2018-11-26T01:17:47.638Z,11.53
2018-11-26T01:20:16.568Z,14.30
2018-11-26T01:22:45.507Z,11.90
2018-11-26T01:25:14.607Z,14.30
2018-11-26T01:27:43.604Z,12.37
2018-11-26T01:30:12.790Z,16.40
2018-11-26T01:32:42.107Z,13.77
2018-11-26T01:35:11.243Z,12.80
2018-11-26T01:37:40.354Z,14.43
2018-11-26T01:40:18.329Z,14.33
2018-11-26T01:42:47.620Z,20.83
2018-11-26T01:45:16.719Z,21.90
2018-11-26T01:47:45.732Z,19.23
2018-11-26T01:50:14.826Z,18.37
2018-11-26T01:52:43.807Z,16.70
2018-11-26T01:55:12.740Z,16.17
2018-11-26T01:57:41.786Z,15.27
2018-11-26T02:00:15.479Z,15.90
2018-11-26T02:02:44.546Z,14.87
2018-11-26T02:05:13.529Z,15.27
2018-11-26T02:07:42.619Z,15.77
2018-11-26T02:10:12.885Z,14.23
2018-11-26T02:12:41.864Z,15.50
2018-11-26T02:15:13.671Z,15.57
2018-11-26T02:17:42.634Z,12.60
2018-11-26T02:20:11.580Z,13.13
2018-11-26T02:22:40.696Z,17.00
2018-11-26T02:25:09.794Z,12.13
2018-11-26T02:27:38.800Z,12.77
2018-11-26T02:30:08.616Z,14.00
2018-11-26T02:32:37.703Z,16.93
2018-11-26T02:35:06.824Z,16.53
2018-11-26T02:37:35.776Z,13.37
2018-11-26T02:40:06.130Z,14.27
2018-11-26T02:42:35.296Z,12.07
2018-11-26T02:45:04.655Z,15.10
2018-11-26T02:47:33.625Z,13.00
2018-11-26T02:50:02.632Z,11.13
2018-11-26T02:52:31.641Z,10.37
2018-11-26T02:55:00.742Z,9.23
2018-11-26T02:57:29.700Z,9.07
2018-11-26T02:59:58.716Z,14.43
2018-11-26T03:02:27.740Z,12.93
2018-11-26T03:04:56.728Z,11.27
2018-11-26T03:07:25.848Z,12.23
2018-11-26T03:09:54.890Z,11.50
2018-11-26T03:12:23.868Z,14.37
2018-11-26T03:14:52.851Z,9.53
2018-11-26T03:17:21.937Z,12.60
2018-11-26T03:19:50.916Z,9.40
2018-11-26T03:22:19.874Z,11.63
2018-11-26T03:24:48.871Z,13.13
2018-11-26T03:27:18.008Z,11.07
2018-11-26T03:29:46.970Z,9.50
2018-11-26T03:32:16.534Z,11.73
2018-11-26T03:34:45.544Z,9.73
2018-11-26T03:37:14.622Z,15.67
2018-11-26T03:39:43.723Z,10.40
2018-11-26T03:42:12.723Z,10.03
2018-11-26T03:44:41.701Z,12.43
2018-11-26T03:47:10.686Z,11.87
2018-11-26T03:49:39.714Z,14.37
2018-11-26T03:54:43.888Z,12.43
2018-11-26T03:57:12.976Z,13.03
2018-11-26T03:59:41.950Z,12.47
2018-11-26T04:02:11.004Z,14.57
2018-11-26T04:04:39.989Z,12.03
2018-11-26T04:07:09.002Z,12.40
2018-11-26T04:09:38.154Z,13.17
2018-11-26T04:12:07.153Z,15.03
2018-11-26T04:14:36.139Z,15.43
2018-11-26T04:17:06.335Z,15.27
2018-11-26T04:19:35.337Z,12.23
2018-11-26T04:22:04.404Z,12.17
2018-11-26T04:24:33.430Z,14.33
2018-11-26T04:27:02.365Z,12.73
2018-11-26T04:29:31.404Z,13.47
2018-11-26T04:32:01.140Z,10.23
2018-11-26T04:34:30.238Z,12.17
2018-11-26T04:36:59.329Z,11.30
2018-11-26T04:39:28.251Z,11.87
2018-11-26T04:41:57.186Z,8.63
2018-11-26T04:44:26.172Z,15.10
2018-11-26T04:46:55.351Z,11.27
2018-11-26T04:49:24.359Z,13.63
2018-11-26T04:51:54.054Z,10.40
2018-11-26T04:54:23.108Z,9.97
2018-11-26T04:56:52.123Z,9.90
2018-11-26T04:59:21.606Z,10.20
2018-11-26T05:01:50.544Z,12.40
2018-11-26T05:04:19.607Z,12.67
2018-11-26T05:06:48.519Z,11.33
2018-11-26T05:09:17.643Z,12.50
2018-11-26T05:11:46.573Z,9.33
2018-11-26T05:14:15.637Z,13.93
2018-11-26T05:16:44.669Z,7.87
2018-11-26T05:19:13.675Z,9.47
2018-11-26T05:21:42.637Z,10.63
2018-11-26T05:24:11.627Z,7.77
2018-11-26T05:26:40.599Z,11.00
2018-11-26T05:29:09.597Z,9.33
2018-11-26T05:31:38.695Z,9.67
2018-11-26T05:34:07.716Z,7.77
2018-11-26T05:36:36.787Z,7.83
2018-11-26T05:39:08.147Z,10.03
2018-11-26T05:41:37.232Z,8.67
2018-11-26T05:44:06.312Z,9.47
2018-11-26T05:46:35.296Z,8.03
2018-11-26T05:49:04.246Z,7.80
2018-11-26T05:51:33.195Z,8.47
2018-11-26T05:54:02.307Z,8.43
2018-11-26T05:56:31.309Z,8.23
2018-11-26T05:59:00.237Z,7.50
2018-11-26T06:01:29.229Z,5.43
2018-11-26T06:03:58.301Z,7.50
2018-11-26T06:06:27.269Z,8.03
2018-11-26T06:08:56.215Z,9.27
2018-11-26T06:11:25.243Z,9.73
2018-11-26T06:13:54.217Z,8.80
2018-11-26T06:16:23.170Z,9.53
2018-11-26T06:18:52.106Z,8.80
2018-11-26T06:21:21.055Z,9.03
2018-11-26T06:23:50.098Z,8.57
2018-11-26T06:26:19.058Z,10.23
2018-11-26T06:28:48.150Z,11.17
2018-11-26T06:31:17.240Z,12.87
2018-11-26T06:33:46.165Z,8.20
2018-11-26T06:36:15.182Z,13.30
2018-11-26T06:38:44.154Z,10.00
2018-11-26T06:41:13.199Z,10.97
2018-11-26T06:43:42.119Z,9.80
2018-11-26T06:46:11.085Z,9.10
2018-11-26T06:48:40.012Z,8.73
2018-11-26T06:51:09.086Z,9.00
2018-11-26T06:53:38.039Z,11.47
2018-11-26T06:56:07.066Z,9.07
2018-11-26T06:58:36.012Z,9.23
2018-11-26T07:01:05.379Z,12.20
2018-11-26T07:03:34.352Z,11.03
2018-11-26T07:06:03.333Z,13.07
2018-11-26T07:08:32.372Z,12.33
2018-11-26T07:11:01.389Z,10.30
2018-11-26T07:13:30.489Z,10.53
2018-11-26T07:15:59.444Z,9.30
2018-11-26T13:54:55.315Z,11.17
2018-11-26T13:57:24.397Z,9.77
2018-11-26T13:59:53.384Z,9.13
2018-11-26T14:02:22.403Z,11.23
2018-11-26T14:04:51.861Z,9.10
2018-11-26T14:07:20.451Z,8.13
2018-11-26T14:09:49.462Z,8.27
2018-11-26T14:12:18.933Z,8.73
2018-11-26T14:14:51.689Z,10.37
2018-11-26T14:17:16.997Z,11.53
2018-11-26T14:19:46.109Z,12.73
2018-11-26T14:22:15.103Z,11.47
2018-11-26T14:24:44.129Z,13.70
2018-11-26T14:27:13.126Z,18.63
2018-11-26T14:29:42.161Z,16.77
2018-11-26T14:32:11.172Z,15.47
2018-11-26T14:34:40.286Z,13.23
2018-11-26T14:37:09.306Z,16.03
2018-11-26T14:39:38.410Z,15.30
2018-11-26T14:42:07.607Z,13.67
2018-11-26T14:44:36.741Z,20.40
2018-11-26T14:47:06.769Z,15.40
2018-11-26T14:49:35.846Z,15.30
2018-11-26T14:52:04.883Z,15.73
2018-11-26T14:54:33.863Z,20.20
2018-11-26T14:57:02.863Z,15.57
2018-11-26T14:59:32.015Z,15.47
2018-11-26T15:02:01.328Z,14.80
2018-11-26T15:04:30.401Z,15.57
2018-11-26T15:06:59.620Z,15.27
2018-11-26T15:09:28.746Z,18.47
2018-11-26T15:11:57.968Z,17.57
2018-11-26T15:14:27.018Z,26.03
2018-11-26T15:16:56.180Z,17.97
2018-11-26T15:19:25.762Z,18.90
2018-11-26T15:21:54.805Z,22.13
2018-11-26T15:24:23.868Z,15.67
2018-11-26T15:26:53.355Z,17.23
2018-11-26T15:29:21.926Z,16.10
2018-11-26T15:31:50.970Z,12.97
2018-11-26T15:34:20.180Z,13.10
2018-11-26T15:36:49.334Z,16.17
2018-11-26T15:39:18.478Z,19.43
2018-11-26T15:41:47.609Z,19.97
2018-11-26T15:44:16.848Z,19.13
2018-11-26T15:46:45.944Z,23.67
2018-11-26T15:49:15.018Z,21.50
2018-11-26T15:51:44.203Z,28.43
2018-11-26T15:54:13.298Z,20.10
2018-11-26T15:56:42.428Z,19.03
2018-11-26T15:59:11.448Z,26.30
2018-11-26T16:01:40.586Z,28.17
2018-11-26T16:04:10.050Z,26.80
2018-11-26T16:06:39.061Z,25.43
2018-11-26T16:09:10.241Z,21.73
2018-11-26T16:11:39.312Z,20.20
2018-11-26T16:14:08.652Z,25.17
2018-11-26T16:16:37.851Z,23.73
2018-11-26T16:19:06.908Z,20.00
2018-11-26T16:21:35.917Z,21.97
2018-11-26T16:24:05.156Z,16.77
2018-11-26T16:26:34.205Z,14.77
2018-11-26T16:29:03.229Z,18.37
2018-11-26T16:31:32.266Z,20.37
2018-11-26T16:34:01.441Z,20.77
2018-11-26T16:36:30.542Z,20.07
2018-11-26T16:38:59.694Z,21.67
2018-11-26T16:41:28.626Z,19.53
2018-11-26T16:43:57.641Z,22.67
2018-11-26T16:46:26.817Z,18.13
2018-11-26T16:48:55.839Z,17.67
2018-11-26T16:51:25.007Z,20.37
2018-11-26T16:53:54.311Z,18.60
2018-11-26T16:56:23.431Z,17.97
2018-11-26T16:58:52.442Z,13.83
2018-11-26T17:01:21.623Z,23.40
2018-11-26T17:03:50.703Z,32.43
2018-11-26T17:06:19.868Z,23.87
2018-11-26T17:08:48.993Z,23.77
2018-11-26T17:11:18.100Z,31.60
2018-11-26T17:13:47.145Z,25.10
2018-11-26T17:16:16.113Z,34.93
2018-11-26T17:18:45.183Z,28.00
2018-11-26T17:21:14.296Z,30.03
2018-11-26T17:23:43.431Z,43.53
2018-11-26T17:26:12.449Z,34.87
2018-11-26T17:28:41.616Z,33.90
2018-11-26T17:31:10.680Z,29.03
2018-11-26T17:33:39.897Z,33.83
2018-11-26T17:36:09.042Z,30.50
2018-11-26T17:38:38.051Z,31.93
2018-11-26T17:41:07.072Z,31.03
2018-11-26T17:43:36.029Z,29.77
2018-11-26T17:46:05.721Z,26.57
2018-11-26T17:48:34.809Z,28.57
2018-11-26T17:51:03.871Z,34.97
2018-11-26T17:53:32.887Z,35.10
2018-11-26T17:56:01.904Z,37.17
2018-11-26T17:58:30.992Z,34.00
2018-11-26T18:01:11.165Z,28.13
2018-11-26T18:03:40.221Z,33.30
2018-11-26T18:06:09.235Z,36.03
2018-11-26T18:08:38.270Z,36.17
2018-11-26T18:11:08.203Z,31.13
2018-11-26T18:13:37.273Z,35.80
2018-11-26T18:16:06.849Z,38.03
2018-11-26T18:18:35.949Z,33.50
2018-11-26T18:21:04.987Z,37.40
2018-11-26T18:23:34.115Z,45.63
2018-11-26T18:26:03.137Z,32.67
2018-11-26T18:28:32.231Z,30.03
2018-11-26T18:31:02.014Z,35.40
2018-11-26T18:33:31.150Z,46.53
2018-11-26T18:36:00.249Z,35.27
2018-11-26T18:38:29.316Z,38.30
2018-11-26T18:40:58.541Z,24.90
2018-11-26T18:43:28.277Z,39.60
2018-11-26T18:45:57.301Z,39.07
2018-11-26T18:48:26.444Z,41.30
2018-11-26T18:50:55.593Z,39.43
2018-11-26T18:53:24.559Z,34.70
2018-11-26T18:55:54.134Z,39.80
2018-11-26T18:58:23.197Z,45.23
2018-11-26T19:00:55.097Z,41.53
2018-11-26T19:03:24.221Z,36.80
2018-11-26T19:05:54.348Z,38.57
2018-11-26T19:08:23.389Z,34.53
2018-11-26T19:10:57.344Z,34.37
2018-11-26T19:13:29.723Z,33.33
2018-11-26T19:16:06.954Z,29.80
2018-11-26T19:18:36.183Z,35.00
2018-11-26T19:21:05.980Z,35.07
2018-11-26T19:23:35.189Z,32.00
2018-11-26T19:26:04.951Z,32.13
2018-11-26T19:28:34.036Z,36.07
2018-11-26T19:31:03.983Z,40.77
2018-11-26T19:33:33.052Z,32.17
2018-11-26T19:36:02.119Z,37.90
2018-11-26T19:38:31.188Z,30.67
2018-11-26T19:41:00.370Z,38.03
2018-11-26T19:43:29.452Z,34.83
2018-11-26T19:45:58.576Z,33.50
2018-11-26T19:48:27.709Z,32.80
2018-11-26T19:50:56.948Z,43.80
2018-11-26T19:53:26.075Z,36.07
2018-11-26T19:55:55.206Z,36.47
2018-11-26T19:58:24.244Z,35.37
2018-11-26T20:00:53.394Z,34.90
2018-11-26T20:03:25.721Z,33.87
2018-11-26T20:05:58.975Z,55.80
2018-11-26T20:08:28.106Z,43.83
2018-11-26T20:10:57.205Z,31.63
2018-11-26T20:13:26.294Z,33.73
2018-11-26T20:15:55.512Z,34.87
2018-11-26T20:18:28.492Z,28.77
2018-11-26T20:20:53.851Z,31.47
2018-11-26T20:23:23.043Z,31.87
2018-11-26T20:25:52.266Z,36.60
2018-11-26T20:28:21.277Z,40.13
2018-11-26T20:30:50.300Z,32.07
2018-11-26T20:33:19.397Z,36.40
2018-11-26T20:35:48.843Z,30.73
2018-11-26T20:38:18.225Z,34.50
2018-11-26T20:40:47.323Z,30.80
2018-11-26T20:43:16.593Z,30.50
2018-11-26T20:45:47.485Z,33.57
2018-11-26T20:48:16.833Z,29.93
2018-11-26T20:50:48.953Z,27.43
2018-11-26T20:53:22.080Z,33.73
2018-11-26T20:55:51.775Z,39.70
2018-11-26T20:58:20.841Z,34.63
2018-11-26T21:00:50.026Z,31.40
2018-11-26T21:03:19.135Z,34.60
2018-11-26T21:05:48.413Z,32.97
2018-11-26T21:08:17.617Z,33.63
2018-11-26T21:10:46.604Z,27.40
2018-11-26T21:13:17.043Z,27.47
2018-11-26T21:15:46.147Z,32.77
2018-11-26T21:18:15.800Z,34.47
2018-11-26T21:20:49.925Z,23.83
2018-11-26T21:23:22.236Z,36.30
2018-11-26T21:25:52.256Z,26.37
2018-11-26T21:28:22.026Z,31.93
2018-11-26T21:30:52.411Z,26.00
2018-11-26T21:33:21.170Z,30.53
2018-11-26T21:35:50.411Z,26.70
2018-11-26T21:38:19.578Z,29.73
2018-11-26T21:40:48.661Z,30.13
2018-11-26T21:43:17.729Z,24.07
2018-11-26T21:45:54.844Z,27.47
2018-11-26T21:48:23.997Z,20.20
2018-11-26T21:50:53.114Z,22.93
2018-11-26T21:53:22.124Z,21.77
2018-11-26T21:55:52.251Z,25.83
2018-11-26T21:58:21.308Z,24.70
2018-11-26T22:00:51.842Z,23.43
2018-11-26T22:03:20.883Z,19.50
2018-11-26T22:05:50.064Z,17.03
2018-11-26T22:08:19.068Z,18.27
2018-11-26T22:10:48.678Z,21.00
2018-11-26T22:13:19.597Z,22.40
2018-11-26T22:15:48.702Z,25.53
2018-11-26T22:18:17.896Z,27.67
2018-11-26T22:20:47.090Z,25.07
2018-11-26T22:23:16.105Z,21.20
2018-11-26T22:25:45.145Z,24.50
2018-11-26T22:28:14.307Z,17.70
2018-11-26T22:30:43.364Z,20.07
2018-11-26T22:33:12.384Z,17.30
2018-11-26T22:35:41.421Z,24.70
2018-11-26T22:38:10.576Z,21.53
2018-11-26T22:40:39.598Z,28.90
2018-11-26T22:43:08.596Z,27.83
2018-11-26T22:45:37.647Z,27.80
2018-11-26T22:48:08.919Z,32.97
2018-11-26T22:50:39.503Z,31.17
2018-11-26T22:53:09.294Z,23.97
2018-11-26T22:55:38.298Z,34.50
2018-11-26T22:58:09.027Z,32.00
2018-11-26T23:00:41.288Z,23.37
2018-11-26T23:03:12.572Z,32.57
2018-11-26T23:05:41.588Z,24.40
2018-11-26T23:08:10.635Z,33.67
2018-11-26T23:10:39.836Z,37.23
2018-11-26T23:13:09.382Z,28.70
2018-11-26T23:15:38.915Z,32.43
2018-11-26T23:18:07.946Z,35.07
2018-11-26T23:20:36.997Z,29.70
2018-11-26T23:23:06.690Z,36.67
2018-11-26T23:25:35.868Z,34.10
2018-11-26T23:28:04.998Z,35.50
2018-11-26T23:30:34.032Z,30.13
2018-11-26T23:33:04.302Z,25.40
2018-11-26T23:35:33.368Z,27.23
2018-11-26T23:38:02.409Z,39.97
2018-11-26T23:40:31.457Z,33.60
2018-11-26T23:43:00.450Z,32.30
2018-11-26T23:45:30.959Z,30.67
2018-11-26T23:47:59.925Z,34.93
2018-11-26T23:50:28.885Z,39.67
2018-11-26T23:52:57.968Z,32.67
2018-11-26T23:55:27.028Z,25.13
2018-11-26T23:57:56.043Z,30.53
